sensor_id;sensor_type;location;lat;lon;timestamp;temperature;humidity
44166;DHT22;30476;53.468;9.826;2023-07-13T00:01:43;18.80;99.90
44166;DHT22;30476;53.468;9.826;2023-07-13T00:04:09;18.80;99.90
44166;DHT22;30476;53.468;9.826;2023-07-13T00:06:34;18.80;99.90
44166;DHT22;30476;53.468;9.826;2023-07-13T00:09:01;18.80;99.90
44166;DHT22;30476;53.468;9.826;2023-07-13T00:11:27;18.70;99.90
44166;DHT22;30476;53.468;9.826;2023-07-13T00:13:53;18.70;99.90
44166;DHT22;30476;53.468;9.826;2023-07-13T00:16:19;18.70;99.90
44166;DHT22;30476;53.468;9.826;2023-07-13T00:18:46;18.60;99.90
44166;DHT22;30476;53.468;9.826;2023-07-13T00:21:12;18.60;99.90
44166;DHT22;30476;53.468;9.826;2023-07-13T00:23:40;18.60;99.90
44166;DHT22;30476;53.468;9.826;2023-07-13T00:26:08;18.50;99.90
44166;DHT22;30476;53.468;9.826;2023-07-13T00:28:35;18.50;99.90
44166;DHT22;30476;53.468;9.826;2023-07-13T00:31:01;18.50;99.90
44166;DHT22;30476;53.468;9.826;2023-07-13T00:33:28;18.40;99.90
44166;DHT22;30476;53.468;9.826;2023-07-13T00:35:55;18.40;99.90
44166;DHT22;30476;53.468;9.826;2023-07-13T00:38:21;18.40;99.90
44166;DHT22;30476;53.468;9.826;2023-07-13T00:40:47;18.40;99.90
44166;DHT22;30476;53.468;9.826;2023-07-13T00:43:18;18.40;99.90
44166;DHT22;30476;53.468;9.826;2023-07-13T00:48:13;18.30;99.90
44166;DHT22;30476;53.468;9.826;2023-07-13T00:50:40;18.30;99.90
44166;DHT22;30476;53.468;9.826;2023-07-13T00:53:07;18.30;99.90
44166;DHT22;30476;53.468;9.826;2023-07-13T00:55:34;18.30;99.90
44166;DHT22;30476;53.468;9.826;2023-07-13T00:58:00;18.20;99.90
44166;DHT22;30476;53.468;9.826;2023-07-13T01:00:29;18.20;99.90
44166;DHT22;30476;53.468;9.826;2023-07-13T01:02:55;18.20;99.90
44166;DHT22;30476;53.468;9.826;2023-07-13T01:05:22;18.20;99.90
44166;DHT22;30476;53.468;9.826;2023-07-13T01:07:50;18.10;99.90
44166;DHT22;30476;53.468;9.826;2023-07-13T01:10:20;18.20;99.90
44166;DHT22;30476;53.468;9.826;2023-07-13T01:12:46;18.10;99.90
44166;DHT22;30476;53.468;9.826;2023-07-13T01:15:35;18.10;99.90
44166;DHT22;30476;53.468;9.826;2023-07-13T01:18:03;18.10;99.90
44166;DHT22;30476;53.468;9.826;2023-07-13T01:20:29;18.10;99.90
44166;DHT22;30476;53.468;9.826;2023-07-13T01:22:55;18.10;99.90
44166;DHT22;30476;53.468;9.826;2023-07-13T01:25:21;18.00;99.90
44166;DHT22;30476;53.468;9.826;2023-07-13T01:27:46;18.00;99.90
44166;DHT22;30476;53.468;9.826;2023-07-13T01:30:13;18.00;99.90
44166;DHT22;30476;53.468;9.826;2023-07-13T01:32:38;18.00;99.90
44166;DHT22;30476;53.468;9.826;2023-07-13T01:35:07;18.00;99.90
44166;DHT22;30476;53.468;9.826;2023-07-13T01:37:33;18.00;99.90
44166;DHT22;30476;53.468;9.826;2023-07-13T01:40:03;18.00;99.90
44166;DHT22;30476;53.468;9.826;2023-07-13T01:42:30;18.00;99.90
44166;DHT22;30476;53.468;9.826;2023-07-13T01:44:55;18.00;99.90
44166;DHT22;30476;53.468;9.826;2023-07-13T01:47:22;18.00;99.90
44166;DHT22;30476;53.468;9.826;2023-07-13T01:49:48;18.00;99.90
44166;DHT22;30476;53.468;9.826;2023-07-13T01:52:15;18.00;99.90
44166;DHT22;30476;53.468;9.826;2023-07-13T01:54:41;18.00;99.90
44166;DHT22;30476;53.468;9.826;2023-07-13T01:57:06;17.90;99.90
44166;DHT22;30476;53.468;9.826;2023-07-13T01:59:32;17.90;99.90
44166;DHT22;30476;53.468;9.826;2023-07-13T02:01:58;17.90;99.90
44166;DHT22;30476;53.468;9.826;2023-07-13T02:04:24;17.90;99.90
44166;DHT22;30476;53.468;9.826;2023-07-13T02:06:50;17.90;99.90
44166;DHT22;30476;53.468;9.826;2023-07-13T02:09:16;17.80;99.90
44166;DHT22;30476;53.468;9.826;2023-07-13T02:11:42;17.80;99.90
44166;DHT22;30476;53.468;9.826;2023-07-13T02:14:08;17.80;99.90
44166;DHT22;30476;53.468;9.826;2023-07-13T02:16:33;17.80;99.90
44166;DHT22;30476;53.468;9.826;2023-07-13T02:18:59;17.80;99.90
44166;DHT22;30476;53.468;9.826;2023-07-13T02:21:26;17.80;99.90
44166;DHT22;30476;53.468;9.826;2023-07-13T02:23:52;17.80;99.90
44166;DHT22;30476;53.468;9.826;2023-07-13T02:26:18;17.80;99.90
44166;DHT22;30476;53.468;9.826;2023-07-13T02:28:44;17.70;99.90
44166;DHT22;30476;53.468;9.826;2023-07-13T02:31:13;17.70;99.90
44166;DHT22;30476;53.468;9.826;2023-07-13T02:33:39;17.70;99.90
44166;DHT22;30476;53.468;9.826;2023-07-13T02:36:05;17.70;99.90
44166;DHT22;30476;53.468;9.826;2023-07-13T02:38:32;17.60;99.90
44166;DHT22;30476;53.468;9.826;2023-07-13T02:40:59;17.60;99.90
44166;DHT22;30476;53.468;9.826;2023-07-13T02:43:25;17.60;99.90
44166;DHT22;30476;53.468;9.826;2023-07-13T02:45:51;17.60;99.90
44166;DHT22;30476;53.468;9.826;2023-07-13T02:48:17;17.60;99.90
44166;DHT22;30476;53.468;9.826;2023-07-13T02:50:44;17.60;99.90
44166;DHT22;30476;53.468;9.826;2023-07-13T02:53:10;17.50;99.90
44166;DHT22;30476;53.468;9.826;2023-07-13T02:55:36;17.50;99.90
44166;DHT22;30476;53.468;9.826;2023-07-13T02:58:02;17.50;99.90
44166;DHT22;30476;53.468;9.826;2023-07-13T03:00:28;17.50;99.90
44166;DHT22;30476;53.468;9.826;2023-07-13T03:02:54;17.50;99.90
44166;DHT22;30476;53.468;9.826;2023-07-13T03:05:23;17.40;99.90
44166;DHT22;30476;53.468;9.826;2023-07-13T03:07:49;17.40;99.90
44166;DHT22;30476;53.468;9.826;2023-07-13T03:10:15;17.50;99.90
44166;DHT22;30476;53.468;9.826;2023-07-13T03:12:42;17.50;99.90
44166;DHT22;30476;53.468;9.826;2023-07-13T03:15:08;17.50;99.90
44166;DHT22;30476;53.468;9.826;2023-07-13T03:17:34;17.40;99.90
44166;DHT22;30476;53.468;9.826;2023-07-13T03:19:59;17.40;99.90
44166;DHT22;30476;53.468;9.826;2023-07-13T03:22:25;17.40;99.90
44166;DHT22;30476;53.468;9.826;2023-07-13T03:24:51;17.30;99.90
44166;DHT22;30476;53.468;9.826;2023-07-13T03:27:17;17.30;99.90
44166;DHT22;30476;53.468;9.826;2023-07-13T03:29:43;17.30;99.90
44166;DHT22;30476;53.468;9.826;2023-07-13T03:32:10;17.30;99.90
44166;DHT22;30476;53.468;9.826;2023-07-13T03:34:35;17.30;99.90
44166;DHT22;30476;53.468;9.826;2023-07-13T03:37:01;17.30;99.90
44166;DHT22;30476;53.468;9.826;2023-07-13T03:39:27;17.20;99.90
44166;DHT22;30476;53.468;9.826;2023-07-13T03:41:53;17.20;99.90
44166;DHT22;30476;53.468;9.826;2023-07-13T03:44:19;17.30;99.90
44166;DHT22;30476;53.468;9.826;2023-07-13T03:46:45;17.20;99.90
44166;DHT22;30476;53.468;9.826;2023-07-13T03:49:11;17.20;99.90
44166;DHT22;30476;53.468;9.826;2023-07-13T03:51:37;17.20;99.90
44166;DHT22;30476;53.468;9.826;2023-07-13T03:54:03;17.10;99.90
44166;DHT22;30476;53.468;9.826;2023-07-13T03:56:29;17.10;99.90
44166;DHT22;30476;53.468;9.826;2023-07-13T03:58:56;17.20;99.90
44166;DHT22;30476;53.468;9.826;2023-07-13T04:01:23;17.20;99.90
44166;DHT22;30476;53.468;9.826;2023-07-13T04:03:51;17.10;99.90
44166;DHT22;30476;53.468;9.826;2023-07-13T04:06:19;17.10;99.90
44166;DHT22;30476;53.468;9.826;2023-07-13T04:08:48;17.10;99.90
44166;DHT22;30476;53.468;9.826;2023-07-13T04:11:15;17.10;99.90
44166;DHT22;30476;53.468;9.826;2023-07-13T04:13:40;17.10;99.90
44166;DHT22;30476;53.468;9.826;2023-07-13T04:16:06;17.10;99.90
44166;DHT22;30476;53.468;9.826;2023-07-13T04:18:32;17.10;99.90
44166;DHT22;30476;53.468;9.826;2023-07-13T04:20:58;17.10;99.90
44166;DHT22;30476;53.468;9.826;2023-07-13T04:23:24;17.20;99.90
44166;DHT22;30476;53.468;9.826;2023-07-13T04:25:52;17.10;99.90
44166;DHT22;30476;53.468;9.826;2023-07-13T04:28:23;17.20;99.90
44166;DHT22;30476;53.468;9.826;2023-07-13T04:30:50;17.10;99.90
44166;DHT22;30476;53.468;9.826;2023-07-13T04:33:16;17.10;99.90
44166;DHT22;30476;53.468;9.826;2023-07-13T04:35:43;17.10;99.90
44166;DHT22;30476;53.468;9.826;2023-07-13T04:38:09;17.20;99.90
44166;DHT22;30476;53.468;9.826;2023-07-13T04:40:37;17.10;99.90
44166;DHT22;30476;53.468;9.826;2023-07-13T04:43:03;17.20;99.90
44166;DHT22;30476;53.468;9.826;2023-07-13T04:45:28;17.20;99.90
44166;DHT22;30476;53.468;9.826;2023-07-13T04:47:55;17.20;99.90
44166;DHT22;30476;53.468;9.826;2023-07-13T04:50:21;17.20;99.90
44166;DHT22;30476;53.468;9.826;2023-07-13T04:52:52;17.20;99.90
44166;DHT22;30476;53.468;9.826;2023-07-13T04:55:19;17.30;99.90
44166;DHT22;30476;53.468;9.826;2023-07-13T04:57:45;17.30;99.90
44166;DHT22;30476;53.468;9.826;2023-07-13T05:00:12;17.30;99.90
44166;DHT22;30476;53.468;9.826;2023-07-13T05:02:39;17.30;99.90
44166;DHT22;30476;53.468;9.826;2023-07-13T05:05:06;17.30;99.90
44166;DHT22;30476;53.468;9.826;2023-07-13T05:07:32;17.30;99.90
44166;DHT22;30476;53.468;9.826;2023-07-13T05:09:59;17.40;99.90
44166;DHT22;30476;53.468;9.826;2023-07-13T05:12:26;17.40;99.90
44166;DHT22;30476;53.468;9.826;2023-07-13T05:14:52;17.40;99.90
44166;DHT22;30476;53.468;9.826;2023-07-13T05:17:17;17.50;99.90
44166;DHT22;30476;53.468;9.826;2023-07-13T05:19:43;17.50;99.90
44166;DHT22;30476;53.468;9.826;2023-07-13T05:22:09;17.50;99.90
44166;DHT22;30476;53.468;9.826;2023-07-13T05:24:35;17.50;99.90
44166;DHT22;30476;53.468;9.826;2023-07-13T05:27:01;17.60;99.90
44166;DHT22;30476;53.468;9.826;2023-07-13T05:29:27;17.60;99.90
44166;DHT22;30476;53.468;9.826;2023-07-13T05:31:53;17.60;99.90
44166;DHT22;30476;53.468;9.826;2023-07-13T05:34:19;17.70;99.90
44166;DHT22;30476;53.468;9.826;2023-07-13T05:36:44;17.70;99.90
44166;DHT22;30476;53.468;9.826;2023-07-13T05:39:10;17.70;99.90
44166;DHT22;30476;53.468;9.826;2023-07-13T05:41:37;17.70;99.90
44166;DHT22;30476;53.468;9.826;2023-07-13T05:44:03;17.70;99.90
44166;DHT22;30476;53.468;9.826;2023-07-13T05:46:29;17.80;99.90
44166;DHT22;30476;53.468;9.826;2023-07-13T05:48:54;17.80;99.90
44166;DHT22;30476;53.468;9.826;2023-07-13T05:51:20;17.90;99.90
44166;DHT22;30476;53.468;9.826;2023-07-13T05:53:46;17.90;99.90
44166;DHT22;30476;53.468;9.826;2023-07-13T05:56:12;17.90;99.90
44166;DHT22;30476;53.468;9.826;2023-07-13T05:58:38;18.00;99.90
44166;DHT22;30476;53.468;9.826;2023-07-13T06:01:06;18.10;99.90
44166;DHT22;30476;53.468;9.826;2023-07-13T06:03:33;18.10;99.90
44166;DHT22;30476;53.468;9.826;2023-07-13T06:05:59;18.10;99.90
44166;DHT22;30476;53.468;9.826;2023-07-13T06:08:28;18.20;99.90
44166;DHT22;30476;53.468;9.826;2023-07-13T06:10:54;18.20;99.90
44166;DHT22;30476;53.468;9.826;2023-07-13T06:13:20;18.30;99.90
44166;DHT22;30476;53.468;9.826;2023-07-13T06:15:49;18.30;99.90
44166;DHT22;30476;53.468;9.826;2023-07-13T06:18:15;18.40;99.90
44166;DHT22;30476;53.468;9.826;2023-07-13T06:20:41;18.40;99.90
44166;DHT22;30476;53.468;9.826;2023-07-13T06:23:07;18.50;99.90
44166;DHT22;30476;53.468;9.826;2023-07-13T06:25:32;18.50;99.90
44166;DHT22;30476;53.468;9.826;2023-07-13T06:27:58;18.50;99.90
44166;DHT22;30476;53.468;9.826;2023-07-13T06:30:24;18.60;99.90
44166;DHT22;30476;53.468;9.826;2023-07-13T06:32:50;18.60;99.90
44166;DHT22;30476;53.468;9.826;2023-07-13T06:35:16;18.70;99.90
44166;DHT22;30476;53.468;9.826;2023-07-13T06:37:41;18.60;99.90
44166;DHT22;30476;53.468;9.826;2023-07-13T06:40:08;18.60;99.90
44166;DHT22;30476;53.468;9.826;2023-07-13T06:42:33;18.70;99.90
44166;DHT22;30476;53.468;9.826;2023-07-13T06:44:59;18.80;99.90
44166;DHT22;30476;53.468;9.826;2023-07-13T06:47:25;18.80;99.90
44166;DHT22;30476;53.468;9.826;2023-07-13T06:49:51;18.90;99.90
44166;DHT22;30476;53.468;9.826;2023-07-13T06:52:16;19.00;99.90
44166;DHT22;30476;53.468;9.826;2023-07-13T06:54:42;19.00;99.90
44166;DHT22;30476;53.468;9.826;2023-07-13T06:57:08;19.10;99.90
44166;DHT22;30476;53.468;9.826;2023-07-13T06:59:34;19.10;99.90
44166;DHT22;30476;53.468;9.826;2023-07-13T07:01:59;19.10;99.90
44166;DHT22;30476;53.468;9.826;2023-07-13T07:04:25;19.00;99.90
44166;DHT22;30476;53.468;9.826;2023-07-13T07:06:51;19.20;99.90
44166;DHT22;30476;53.468;9.826;2023-07-13T07:09:17;19.20;99.90
44166;DHT22;30476;53.468;9.826;2023-07-13T07:11:43;19.30;99.90
44166;DHT22;30476;53.468;9.826;2023-07-13T07:14:09;19.50;99.90
44166;DHT22;30476;53.468;9.826;2023-07-13T07:16:35;19.60;99.90
44166;DHT22;30476;53.468;9.826;2023-07-13T07:19:00;19.70;99.90
44166;DHT22;30476;53.468;9.826;2023-07-13T07:21:26;19.80;99.90
44166;DHT22;30476;53.468;9.826;2023-07-13T07:23:52;19.90;99.90
44166;DHT22;30476;53.468;9.826;2023-07-13T07:26:18;19.90;99.90
44166;DHT22;30476;53.468;9.826;2023-07-13T07:28:44;20.00;99.90
44166;DHT22;30476;53.468;9.826;2023-07-13T07:31:10;20.10;99.90
44166;DHT22;30476;53.468;9.826;2023-07-13T07:33:36;20.10;99.90
44166;DHT22;30476;53.468;9.826;2023-07-13T07:36:02;20.20;99.90
44166;DHT22;30476;53.468;9.826;2023-07-13T07:38:28;20.30;99.90
44166;DHT22;30476;53.468;9.826;2023-07-13T07:40:54;20.20;99.90
44166;DHT22;30476;53.468;9.826;2023-07-13T07:43:20;20.30;99.90
44166;DHT22;30476;53.468;9.826;2023-07-13T07:49:08;20.30;99.90
44166;DHT22;30476;53.468;9.826;2023-07-13T07:51:34;20.40;99.90
44166;DHT22;30476;53.468;9.826;2023-07-13T07:54:00;20.50;99.90
44166;DHT22;30476;53.468;9.826;2023-07-13T07:56:25;20.60;99.90
44166;DHT22;30476;53.468;9.826;2023-07-13T07:58:51;20.60;99.90
44166;DHT22;30476;53.468;9.826;2023-07-13T08:01:17;20.70;99.90
44166;DHT22;30476;53.468;9.826;2023-07-13T08:03:43;20.80;99.90
44166;DHT22;30476;53.468;9.826;2023-07-13T08:06:09;20.80;99.90
44166;DHT22;30476;53.468;9.826;2023-07-13T08:08:35;20.80;99.90
44166;DHT22;30476;53.468;9.826;2023-07-13T08:11:04;20.80;99.90
44166;DHT22;30476;53.468;9.826;2023-07-13T08:13:30;20.80;99.90
44166;DHT22;30476;53.468;9.826;2023-07-13T08:15:56;20.80;99.90
44166;DHT22;30476;53.468;9.826;2023-07-13T08:18:22;20.90;99.90
44166;DHT22;30476;53.468;9.826;2023-07-13T08:20:48;20.90;99.90
44166;DHT22;30476;53.468;9.826;2023-07-13T08:23:14;21.00;99.90
44166;DHT22;30476;53.468;9.826;2023-07-13T08:25:42;21.00;99.90
44166;DHT22;30476;53.468;9.826;2023-07-13T08:28:08;21.10;99.90
44166;DHT22;30476;53.468;9.826;2023-07-13T08:30:33;21.20;99.90
44166;DHT22;30476;53.468;9.826;2023-07-13T08:32:59;21.30;99.90
44166;DHT22;30476;53.468;9.826;2023-07-13T08:35:25;21.50;99.90
44166;DHT22;30476;53.468;9.826;2023-07-13T08:37:51;21.60;99.90
44166;DHT22;30476;53.468;9.826;2023-07-13T08:40:19;21.70;99.90
44166;DHT22;30476;53.468;9.826;2023-07-13T08:42:54;21.80;99.90
44166;DHT22;30476;53.468;9.826;2023-07-13T08:45:23;21.90;99.90
44166;DHT22;30476;53.468;9.826;2023-07-13T08:47:54;22.00;99.90
44166;DHT22;30476;53.468;9.826;2023-07-13T08:50:25;22.00;99.90
44166;DHT22;30476;53.468;9.826;2023-07-13T08:52:54;22.10;99.90
44166;DHT22;30476;53.468;9.826;2023-07-13T08:55:24;22.20;99.90
44166;DHT22;30476;53.468;9.826;2023-07-13T08:57:59;22.20;99.90
44166;DHT22;30476;53.468;9.826;2023-07-13T09:00:34;22.30;99.90
44166;DHT22;30476;53.468;9.826;2023-07-13T09:03:03;22.30;99.90
44166;DHT22;30476;53.468;9.826;2023-07-13T09:05:35;22.30;99.90
44166;DHT22;30476;53.468;9.826;2023-07-13T09:08:30;22.40;99.90
44166;DHT22;30476;53.468;9.826;2023-07-13T09:14:23;22.60;99.90
44166;DHT22;30476;53.468;9.826;2023-07-13T09:16:51;22.70;99.90
44166;DHT22;30476;53.468;9.826;2023-07-13T09:19:25;22.80;99.90
44166;DHT22;30476;53.468;9.826;2023-07-13T09:21:53;22.90;99.90
44166;DHT22;30476;53.468;9.826;2023-07-13T09:24:45;22.90;99.90
44166;DHT22;30476;53.468;9.826;2023-07-13T09:27:19;22.90;99.90
44166;DHT22;30476;53.468;9.826;2023-07-13T09:30:02;23.00;99.90
44166;DHT22;30476;53.468;9.826;2023-07-13T09:32:31;23.10;99.90
44166;DHT22;30476;53.468;9.826;2023-07-13T09:34:57;23.10;99.90
44166;DHT22;30476;53.468;9.826;2023-07-13T09:37:30;23.10;99.90
44166;DHT22;30476;53.468;9.826;2023-07-13T09:39:58;23.20;99.90
44166;DHT22;30476;53.468;9.826;2023-07-13T09:42:25;23.30;99.90
44166;DHT22;30476;53.468;9.826;2023-07-13T09:44:56;23.30;99.90
44166;DHT22;30476;53.468;9.826;2023-07-13T09:47:27;23.40;99.90
44166;DHT22;30476;53.468;9.826;2023-07-13T09:49:59;23.40;99.90
44166;DHT22;30476;53.468;9.826;2023-07-13T09:52:26;23.50;99.90
44166;DHT22;30476;53.468;9.826;2023-07-13T09:54:54;23.50;99.90
44166;DHT22;30476;53.468;9.826;2023-07-13T09:57:27;23.60;99.90
44166;DHT22;30476;53.468;9.826;2023-07-13T09:59:55;23.60;99.90
44166;DHT22;30476;53.468;9.826;2023-07-13T10:02:30;23.70;99.90
44166;DHT22;30476;53.468;9.826;2023-07-13T10:07:26;23.70;99.90
44166;DHT22;30476;53.468;9.826;2023-07-13T10:09:54;23.60;99.80
44166;DHT22;30476;53.468;9.826;2023-07-13T10:12:21;23.60;99.90
44166;DHT22;30476;53.468;9.826;2023-07-13T10:14:51;23.60;99.60
44166;DHT22;30476;53.468;9.826;2023-07-13T10:17:20;23.60;99.40
44166;DHT22;30476;53.468;9.826;2023-07-13T10:19:50;23.60;98.40
44166;DHT22;30476;53.468;9.826;2023-07-13T10:22:24;23.70;98.50
44166;DHT22;30476;53.468;9.826;2023-07-13T10:24:53;23.80;98.80
44166;DHT22;30476;53.468;9.826;2023-07-13T10:27:27;23.80;98.70
44166;DHT22;30476;53.468;9.826;2023-07-13T10:30:13;23.90;97.70
44166;DHT22;30476;53.468;9.826;2023-07-13T10:32:40;23.90;99.50
44166;DHT22;30476;53.468;9.826;2023-07-13T10:35:10;24.00;98.90
44166;DHT22;30476;53.468;9.826;2023-07-13T10:37:53;24.10;99.60
44166;DHT22;30476;53.468;9.826;2023-07-13T10:40:25;24.10;99.60
44166;DHT22;30476;53.468;9.826;2023-07-13T10:42:56;24.00;98.20
44166;DHT22;30476;53.468;9.826;2023-07-13T10:45:24;24.00;98.40
44166;DHT22;30476;53.468;9.826;2023-07-13T10:47:52;24.00;98.10
44166;DHT22;30476;53.468;9.826;2023-07-13T10:50:23;24.10;98.10
44166;DHT22;30476;53.468;9.826;2023-07-13T10:52:55;24.20;98.10
44166;DHT22;30476;53.468;9.826;2023-07-13T10:58:22;24.40;95.20
44166;DHT22;30476;53.468;9.826;2023-07-13T11:00:50;24.50;96.30
44166;DHT22;30476;53.468;9.826;2023-07-13T11:03:19;24.70;95.80
44166;DHT22;30476;53.468;9.826;2023-07-13T11:05:50;24.80;96.30
44166;DHT22;30476;53.468;9.826;2023-07-13T11:08:32;25.00;96.20
44166;DHT22;30476;53.468;9.826;2023-07-13T11:10:58;25.20;94.50
44166;DHT22;30476;53.468;9.826;2023-07-13T11:13:37;25.30;93.50
44166;DHT22;30476;53.468;9.826;2023-07-13T11:22:02;25.40;92.50
44166;DHT22;30476;53.468;9.826;2023-07-13T11:24:50;25.20;91.80
44166;DHT22;30476;53.468;9.826;2023-07-13T11:27:44;25.10;91.80
44166;DHT22;30476;53.468;9.826;2023-07-13T11:33:18;25.20;93.40
44166;DHT22;30476;53.468;9.826;2023-07-13T11:38:36;25.40;92.50
44166;DHT22;30476;53.468;9.826;2023-07-13T11:41:13;25.60;91.60
44166;DHT22;30476;53.468;9.826;2023-07-13T11:43:40;25.60;91.70
44166;DHT22;30476;53.468;9.826;2023-07-13T11:46:14;25.60;91.90
44166;DHT22;30476;53.468;9.826;2023-07-13T11:48:47;25.60;92.00
44166;DHT22;30476;53.468;9.826;2023-07-13T11:51:22;25.60;91.80
44166;DHT22;30476;53.468;9.826;2023-07-13T11:53:50;25.50;91.40
44166;DHT22;30476;53.468;9.826;2023-07-13T11:56:17;25.40;91.30
44166;DHT22;30476;53.468;9.826;2023-07-13T11:58:43;25.40;91.60
44166;DHT22;30476;53.468;9.826;2023-07-13T12:01:20;25.30;91.40
44166;DHT22;30476;53.468;9.826;2023-07-13T12:03:48;25.20;91.30
44166;DHT22;30476;53.468;9.826;2023-07-13T12:06:33;25.10;93.00
44166;DHT22;30476;53.468;9.826;2023-07-13T12:09:02;25.10;94.40
44166;DHT22;30476;53.468;9.826;2023-07-13T12:11:29;24.80;94.80
44166;DHT22;30476;53.468;9.826;2023-07-13T12:13:55;24.60;95.30
44166;DHT22;30476;53.468;9.826;2023-07-13T12:18:52;24.20;96.20
44166;DHT22;30476;53.468;9.826;2023-07-13T12:21:19;24.00;96.30
44166;DHT22;30476;53.468;9.826;2023-07-13T12:23:48;23.80;97.00
44166;DHT22;30476;53.468;9.826;2023-07-13T12:26:15;23.60;97.60
44166;DHT22;30476;53.468;9.826;2023-07-13T12:28:53;23.50;97.90
44166;DHT22;30476;53.468;9.826;2023-07-13T12:33:56;23.30;98.90
44166;DHT22;30476;53.468;9.826;2023-07-13T12:36:22;23.10;99.20
44166;DHT22;30476;53.468;9.826;2023-07-13T12:38:48;23.10;99.00
44166;DHT22;30476;53.468;9.826;2023-07-13T12:41:15;23.00;99.10
44166;DHT22;30476;53.468;9.826;2023-07-13T12:43:41;23.00;99.60
44166;DHT22;30476;53.468;9.826;2023-07-13T12:46:23;22.90;99.40
44166;DHT22;30476;53.468;9.826;2023-07-13T12:48:54;22.80;99.50
44166;DHT22;30476;53.468;9.826;2023-07-13T12:51:25;22.80;99.80
44166;DHT22;30476;53.468;9.826;2023-07-13T12:53:59;22.70;99.90
44166;DHT22;30476;53.468;9.826;2023-07-13T12:56:33;22.60;99.90
44166;DHT22;30476;53.468;9.826;2023-07-13T12:59:02;22.50;99.90
44166;DHT22;30476;53.468;9.826;2023-07-13T13:01:33;22.40;99.90
44166;DHT22;30476;53.468;9.826;2023-07-13T13:04:02;22.30;99.90
44166;DHT22;30476;53.468;9.826;2023-07-13T13:06:32;22.20;99.90
44166;DHT22;30476;53.468;9.826;2023-07-13T13:08:59;22.10;99.90
44166;DHT22;30476;53.468;9.826;2023-07-13T13:11:27;22.00;99.90
44166;DHT22;30476;53.468;9.826;2023-07-13T13:13:53;22.00;99.90
44166;DHT22;30476;53.468;9.826;2023-07-13T13:18:52;22.00;99.90
44166;DHT22;30476;53.468;9.826;2023-07-13T13:21:19;22.00;99.90
44166;DHT22;30476;53.468;9.826;2023-07-13T13:23:45;22.00;99.90
44166;DHT22;30476;53.468;9.826;2023-07-13T13:26:15;22.10;99.90
44166;DHT22;30476;53.468;9.826;2023-07-13T13:28:42;22.10;99.90
44166;DHT22;30476;53.468;9.826;2023-07-13T13:31:09;22.10;99.90
44166;DHT22;30476;53.468;9.826;2023-07-13T13:33:40;22.10;99.90
44166;DHT22;30476;53.468;9.826;2023-07-13T13:36:19;22.00;99.90
44166;DHT22;30476;53.468;9.826;2023-07-13T13:38:47;21.90;99.90
44166;DHT22;30476;53.468;9.826;2023-07-13T13:41:14;21.90;99.90
44166;DHT22;30476;53.468;9.826;2023-07-13T13:43:41;21.90;99.90
44166;DHT22;30476;53.468;9.826;2023-07-13T13:46:25;21.90;99.90
44166;DHT22;30476;53.468;9.826;2023-07-13T13:48:51;21.90;99.90
44166;DHT22;30476;53.468;9.826;2023-07-13T13:51:21;21.90;99.90
44166;DHT22;30476;53.468;9.826;2023-07-13T13:53:48;21.90;99.90
44166;DHT22;30476;53.468;9.826;2023-07-13T13:56:14;21.90;99.90
44166;DHT22;30476;53.468;9.826;2023-07-13T13:58:40;21.90;99.90
44166;DHT22;30476;53.468;9.826;2023-07-13T14:01:16;21.90;99.90
44166;DHT22;30476;53.468;9.826;2023-07-13T14:03:43;21.80;99.90
44166;DHT22;30476;53.468;9.826;2023-07-13T14:06:13;21.80;99.90
44166;DHT22;30476;53.468;9.826;2023-07-13T14:08:39;21.80;99.90
44166;DHT22;30476;53.468;9.826;2023-07-13T14:11:11;21.90;99.90
44166;DHT22;30476;53.468;9.826;2023-07-13T14:13:42;22.00;99.90
44166;DHT22;30476;53.468;9.826;2023-07-13T14:16:12;22.00;99.90
44166;DHT22;30476;53.468;9.826;2023-07-13T14:18:38;22.10;99.90
44166;DHT22;30476;53.468;9.826;2023-07-13T14:21:12;22.20;99.90
44166;DHT22;30476;53.468;9.826;2023-07-13T14:23:38;22.30;99.90
44166;DHT22;30476;53.468;9.826;2023-07-13T14:26:10;22.30;99.90
44166;DHT22;30476;53.468;9.826;2023-07-13T14:28:41;22.40;99.90
44166;DHT22;30476;53.468;9.826;2023-07-13T14:31:07;22.40;99.90
44166;DHT22;30476;53.468;9.826;2023-07-13T14:33:33;22.50;99.60
44166;DHT22;30476;53.468;9.826;2023-07-13T14:35:59;22.40;99.60
44166;DHT22;30476;53.468;9.826;2023-07-13T14:38:24;22.40;99.80
44166;DHT22;30476;53.468;9.826;2023-07-13T14:40:50;22.50;99.90
44166;DHT22;30476;53.468;9.826;2023-07-13T14:43:17;22.50;99.60
44166;DHT22;30476;53.468;9.826;2023-07-13T14:45:48;22.50;99.90
44166;DHT22;30476;53.468;9.826;2023-07-13T14:48:21;22.50;99.90
44166;DHT22;30476;53.468;9.826;2023-07-13T14:50:53;22.50;99.90
44166;DHT22;30476;53.468;9.826;2023-07-13T14:53:19;22.50;99.90
44166;DHT22;30476;53.468;9.826;2023-07-13T14:55:45;22.50;99.90
44166;DHT22;30476;53.468;9.826;2023-07-13T14:58:10;22.60;99.90
44166;DHT22;30476;53.468;9.826;2023-07-13T15:00:36;22.60;99.80
44166;DHT22;30476;53.468;9.826;2023-07-13T15:03:03;22.60;99.90
44166;DHT22;30476;53.468;9.826;2023-07-13T15:05:32;22.60;99.90
44166;DHT22;30476;53.468;9.826;2023-07-13T15:08:00;22.60;99.90
44166;DHT22;30476;53.468;9.826;2023-07-13T15:10:28;22.60;99.90
44166;DHT22;30476;53.468;9.826;2023-07-13T15:13:00;22.60;99.90
44166;DHT22;30476;53.468;9.826;2023-07-13T15:15:28;22.70;99.90
44166;DHT22;30476;53.468;9.826;2023-07-13T15:17:54;22.60;99.90
44166;DHT22;30476;53.468;9.826;2023-07-13T15:20:29;22.70;99.90
44166;DHT22;30476;53.468;9.826;2023-07-13T15:22:56;22.70;99.90
44166;DHT22;30476;53.468;9.826;2023-07-13T15:25:25;22.70;99.50
44166;DHT22;30476;53.468;9.826;2023-07-13T15:27:51;22.70;99.00
44166;DHT22;30476;53.468;9.826;2023-07-13T15:30:17;22.70;98.30
44166;DHT22;30476;53.468;9.826;2023-07-13T15:32:44;22.70;98.00
44166;DHT22;30476;53.468;9.826;2023-07-13T15:35:14;22.70;98.00
44166;DHT22;30476;53.468;9.826;2023-07-13T15:37:40;22.70;98.10
44166;DHT22;30476;53.468;9.826;2023-07-13T15:40:07;22.60;98.40
44166;DHT22;30476;53.468;9.826;2023-07-13T15:42:32;22.60;98.50
44166;DHT22;30476;53.468;9.826;2023-07-13T15:44:58;22.60;98.40
44166;DHT22;30476;53.468;9.826;2023-07-13T15:47:24;22.70;98.50
44166;DHT22;30476;53.468;9.826;2023-07-13T15:49:50;22.60;98.50
44166;DHT22;30476;53.468;9.826;2023-07-13T15:52:21;22.60;98.50
44166;DHT22;30476;53.468;9.826;2023-07-13T15:54:48;22.60;98.10
44166;DHT22;30476;53.468;9.826;2023-07-13T15:57:14;22.50;97.60
44166;DHT22;30476;53.468;9.826;2023-07-13T15:59:41;22.60;97.50
44166;DHT22;30476;53.468;9.826;2023-07-13T16:02:26;22.60;97.50
44166;DHT22;30476;53.468;9.826;2023-07-13T16:04:52;22.50;96.90
44166;DHT22;30476;53.468;9.826;2023-07-13T16:07:18;22.50;97.00
44166;DHT22;30476;53.468;9.826;2023-07-13T16:09:45;22.50;97.00